Chunky, Mississippi
Current Conditions -  °F | °C
As of 5:58 PM on Friday 24 Oct 2014 (Local Time) from KMEI Reporting Station
Clear Clear  
Wind Chill: 18°   Ceiling: Unl
Heat Index: 18°   Visibility: 10mi
Dew Point:   Wind: 5mph
Humidity: 56%   Direction: 340°NNW
Pressure: 30.06"   Gusts: NA
Location:  32.33°N, 88.93°W
Report Text: KMEI 242258Z 34004KT 10SM CLR 18/09 A3006 RMK AO2 SLP177 T01830094
Loading
Personal Weather Stations






























Interactive Weather Map
Tropical Storm Tracking
New forecast layout! Learn more

10-Day Weather Forecast

Advertisements
Track Severe Weather on mobile